Time;durP1;ratioP1;P1;durP2;ratioP2;P2;SDS_P1;SDS_P2;PMS_P1;PMS_P2;Temp;Humidity;BMP_temperature;BMP_pressure;BME280_temperature;BME280_humidity;BME280_pressure;Samples;Min_cycle;Max_cycle;Signal;HPM_P1;HPM_P2
2022/03/19 00:00:29;;;;;;;10.80;8.03;;;;;;;;;;5035459;28;20261;-66
2022/03/19 00:02:55;;;;;;;11.10;7.60;;;;;;;;;;5053210;28;20198;-66
2022/03/19 00:05:21;;;;;;;12.70;8.10;;;;;;;;;;5035394;28;20178;-65
2022/03/19 00:07:49;;;;;;;13.97;7.60;;;;;;;;;;5035345;28;20212;-66
2022/03/19 00:10:16;;;;;;;14.77;8.03;;;;;;;;;;5035379;28;20269;-66
2022/03/19 00:12:42;;;;;;;11.40;8.00;;;;;;;;;;5035099;28;20221;-66
2022/03/19 00:15:09;;;;;;;15.57;7.63;;;;;;;;;;5053113;28;20171;-66
2022/03/19 00:17:35;;;;;;;11.53;8.33;;;;;;;;;;5035131;28;20188;-66
2022/03/19 00:20:02;;;;;;;11.50;8.20;;;;;;;;;;5035192;28;20178;-66
2022/03/19 00:22:28;;;;;;;16.30;9.00;;;;;;;;;;5052766;28;20248;-66
2022/03/19 00:24:54;;;;;;;12.50;8.23;;;;;;;;;;5035182;28;20623;-66
2022/03/19 00:27:20;;;;;;;11.80;8.60;;;;;;;;;;5053288;28;20182;-66
2022/03/19 00:29:46;;;;;;;14.20;8.80;;;;;;;;;;5053040;28;20227;-66
2022/03/19 00:32:12;;;;;;;14.77;9.20;;;;;;;;;;5052797;28;20198;-65
2022/03/19 00:34:38;;;;;;;13.73;9.00;;;;;;;;;;5052998;28;20650;-66
2022/03/19 00:37:04;;;;;;;17.93;8.83;;;;;;;;;;5035060;28;20219;-66
2022/03/19 00:39:30;;;;;;;15.87;9.67;;;;;;;;;;5053211;28;20632;-66
2022/03/19 00:41:56;;;;;;;13.30;9.03;;;;;;;;;;5052833;28;20182;-66
2022/03/19 00:44:22;;;;;;;13.60;8.47;;;;;;;;;;5034960;28;20277;-66
2022/03/19 00:46:48;;;;;;;13.13;8.83;;;;;;;;;;5035050;28;20178;-66
2022/03/19 00:49:15;;;;;;;16.00;9.77;;;;;;;;;;5034976;28;20183;-66
2022/03/19 00:51:41;;;;;;;14.60;9.70;;;;;;;;;;5052932;28;20565;-66
2022/03/19 00:54:07;;;;;;;13.33;9.27;;;;;;;;;;5034834;28;20206;-66
2022/03/19 00:56:34;;;;;;;13.57;10.07;;;;;;;;;;5052687;28;20178;-66
2022/03/19 00:59:00;;;;;;;12.70;9.23;;;;;;;;;;5052827;28;20171;-66
2022/03/19 01:01:26;;;;;;;14.73;9.03;;;;;;;;;;5052645;28;20178;-66
2022/03/19 01:03:53;;;;;;;17.20;10.33;;;;;;;;;;5052634;28;20205;-66
2022/03/19 01:06:19;;;;;;;15.90;10.30;;;;;;;;;;5036748;28;20269;-66
2022/03/19 01:08:45;;;;;;;16.63;10.07;;;;;;;;;;5056341;28;20182;-66
2022/03/19 01:11:11;;;;;;;15.00;9.57;;;;;;;;;;5056558;28;20178;-66
2022/03/19 01:13:37;;;;;;;16.80;9.57;;;;;;;;;;5038312;28;20690;-66
2022/03/19 01:16:03;;;;;;;13.93;10.00;;;;;;;;;;5056215;28;20637;-66
2022/03/19 01:18:30;;;;;;;14.77;10.70;;;;;;;;;;5038214;28;20240;-66
2022/03/19 01:20:56;;;;;;;13.37;9.90;;;;;;;;;;5056093;28;20634;-66
2022/03/19 01:23:22;;;;;;;13.80;10.57;;;;;;;;;;5038117;28;20245;-66
2022/03/19 01:25:48;;;;;;;14.90;10.90;;;;;;;;;;5038473;28;20186;-66
2022/03/19 01:28:14;;;;;;;17.10;10.23;;;;;;;;;;5038735;28;20669;-66
2022/03/19 01:30:40;;;;;;;16.90;10.43;;;;;;;;;;5038600;28;20178;-66
2022/03/19 01:33:06;;;;;;;16.60;10.90;;;;;;;;;;5038139;28;20214;-66
2022/03/19 01:35:33;;;;;;;18.73;10.47;;;;;;;;;;5056291;28;20206;-66
2022/03/19 01:37:59;;;;;;;14.77;10.90;;;;;;;;;;5037964;28;20182;-66
2022/03/19 01:40:25;;;;;;;16.27;11.10;;;;;;;;;;5037791;28;20273;-66
2022/03/19 01:42:52;;;;;;;14.40;10.90;;;;;;;;;;5055556;28;20198;-66
2022/03/19 01:45:20;;;;;;;17.10;10.97;;;;;;;;;;5055652;28;20189;-66
2022/03/19 01:47:47;;;;;;;16.87;11.80;;;;;;;;;;5037732;28;20256;-66
2022/03/19 01:50:14;;;;;;;16.33;11.27;;;;;;;;;;5055535;28;20260;-66
2022/03/19 01:52:40;;;;;;;20.47;10.83;;;;;;;;;;5037589;28;20685;-65
2022/03/19 01:55:07;;;;;;;16.57;11.30;;;;;;;;;;5055722;28;20175;-66
2022/03/19 01:57:37;;;;;;;14.57;11.23;;;;;;;;;;5037544;28;20653;-65
2022/03/19 02:00:03;;;;;;;15.53;11.07;;;;;;;;;;5055856;28;20171;-66
2022/03/19 02:02:29;;;;;;;20.37;11.83;;;;;;;;;;5055340;28;20534;-65
2022/03/19 02:04:55;;;;;;;16.53;11.27;;;;;;;;;;5055356;28;20660;-66
2022/03/19 02:07:21;;;;;;;18.13;11.57;;;;;;;;;;5055488;28;20182;-65
2022/03/19 02:09:47;;;;;;;16.10;10.93;;;;;;;;;;5055291;28;20231;-65
2022/03/19 02:12:13;;;;;;;14.43;11.30;;;;;;;;;;5055400;28;20727;-65
2022/03/19 02:14:39;;;;;;;14.47;10.93;;;;;;;;;;5055293;28;20178;-65
2022/03/19 02:17:06;;;;;;;16.97;11.53;;;;;;;;;;5054556;28;20178;-66
2022/03/19 02:19:32;;;;;;;15.60;11.23;;;;;;;;;;5055098;28;20659;-66
2022/03/19 02:21:58;;;;;;;13.57;10.10;;;;;;;;;;5037115;28;20204;-65
2022/03/19 02:27:09;;;;;;;14.97;11.10;;;;;;;;;;5057956;28;20196;-65
2022/03/19 02:29:35;;;;;;;21.97;11.80;;;;;;;;;;5039934;28;20273;-65
2022/03/19 02:32:03;;;;;;;16.20;11.57;;;;;;;;;;5058003;28;20195;-65
2022/03/19 02:34:29;;;;;;;16.87;11.00;;;;;;;;;;5043993;28;20195;-65
2022/03/19 02:36:55;;;;;;;12.60;10.77;;;;;;;;;;5044427;28;20651;-65
2022/03/19 02:39:25;;;;;;;15.43;11.07;;;;;;;;;;5046037;28;20265;-66
2022/03/19 02:41:51;;;;;;;18.63;12.03;;;;;;;;;;5058592;28;20183;-66
2022/03/19 02:44:18;;;;;;;20.97;11.50;;;;;;;;;;5039054;28;20249;-66
2022/03/19 02:46:45;;;;;;;15.63;10.67;;;;;;;;;;5057160;28;20185;-66
2022/03/19 02:49:12;;;;;;;14.60;10.70;;;;;;;;;;5059500;28;20658;-67
2022/03/19 02:51:38;;;;;;;22.13;12.30;;;;;;;;;;5059081;28;20238;-66
2022/03/19 02:54:05;;;;;;;18.37;12.13;;;;;;;;;;5058410;28;20271;-67
2022/03/19 02:56:35;;;;;;;18.60;12.07;;;;;;;;;;5057577;28;20245;-67
2022/03/19 02:59:10;;;;;;;16.43;11.97;;;;;;;;;;5038930;28;20179;-65
2022/03/19 03:01:37;;;;;;;14.03;11.87;;;;;;;;;;5055770;28;20241;-66
2022/03/19 03:04:03;;;;;;;17.83;11.60;;;;;;;;;;5036970;28;20263;-65
2022/03/19 03:06:29;;;;;;;16.47;11.57;;;;;;;;;;5054668;28;20178;-65
2022/03/19 03:08:56;;;;;;;16.73;11.87;;;;;;;;;;5036837;28;20213;-65
2022/03/19 03:11:22;;;;;;;15.90;11.20;;;;;;;;;;5036742;28;20178;-66
2022/03/19 03:13:48;;;;;;;20.43;10.83;;;;;;;;;;5054566;28;20302;-65
2022/03/19 03:16:14;;;;;;;17.33;11.43;;;;;;;;;;5054789;28;20232;-65
2022/03/19 03:18:40;;;;;;;14.50;10.90;;;;;;;;;;5036631;28;20551;-66
2022/03/19 03:21:06;;;;;;;17.03;11.60;;;;;;;;;;5054321;28;20171;-65
2022/03/19 03:23:32;;;;;;;13.63;9.97;;;;;;;;;;5053981;28;20214;-65
2022/03/19 03:25:58;;;;;;;18.23;12.00;;;;;;;;;;5054434;28;20175;-65
2022/03/19 03:28:24;;;;;;;18.83;12.70;;;;;;;;;;5036076;28;20281;-65
2022/03/19 03:30:50;;;;;;;15.60;10.67;;;;;;;;;;5035605;28;20267;-66
2022/03/19 03:33:16;;;;;;;16.47;11.27;;;;;;;;;;5036115;28;20214;-65
2022/03/19 03:35:42;;;;;;;14.73;11.13;;;;;;;;;;5036249;28;20662;-65
2022/03/19 03:38:08;;;;;;;19.40;11.07;;;;;;;;;;5054039;28;20178;-66
2022/03/19 03:40:34;;;;;;;16.20;11.37;;;;;;;;;;5035840;28;20182;-67
2022/03/19 03:43:00;;;;;;;17.37;11.83;;;;;;;;;;5035673;28;20209;-65
2022/03/19 03:45:30;;;;;;;16.73;12.00;;;;;;;;;;5035881;28;20178;-65
2022/03/19 03:47:56;;;;;;;18.33;11.40;;;;;;;;;;5053474;28;20183;-66
2022/03/19 03:50:22;;;;;;;18.30;11.53;;;;;;;;;;5053839;28;20209;-66
2022/03/19 03:52:49;;;;;;;23.27;10.53;;;;;;;;;;5035447;28;20320;-66
2022/03/19 03:55:15;;;;;;;19.27;11.97;;;;;;;;;;5053951;28;20198;-66
2022/03/19 03:57:41;;;;;;;15.87;10.73;;;;;;;;;;5053469;28;20277;-66
2022/03/19 04:00:08;;;;;;;15.57;11.37;;;;;;;;;;5053536;28;20668;-66
2022/03/19 04:02:34;;;;;;;18.40;12.20;;;;;;;;;;5035515;28;20713;-66
2022/03/19 04:05:00;;;;;;;17.33;11.27;;;;;;;;;;5035490;28;20229;-65
2022/03/19 04:07:27;;;;;;;18.70;11.30;;;;;;;;;;5053726;28;20245;-65
2022/03/19 04:09:53;;;;;;;20.33;12.07;;;;;;;;;;5053771;28;20178;-66
2022/03/19 04:12:19;;;;;;;16.50;11.20;;;;;;;;;;5053071;28;20194;-66
2022/03/19 04:14:45;;;;;;;14.40;9.80;;;;;;;;;;5054151;28;20556;-66
2022/03/19 04:17:11;;;;;;;18.73;11.53;;;;;;;;;;5035882;28;20190;-65
2022/03/19 04:19:37;;;;;;;16.43;10.77;;;;;;;;;;5053812;28;20178;-65
2022/03/19 04:22:03;;;;;;;14.00;10.80;;;;;;;;;;5053320;28;20677;-66
2022/03/19 04:24:29;;;;;;;14.43;11.00;;;;;;;;;;5053956;28;20217;-65
2022/03/19 04:26:56;;;;;;;18.60;11.77;;;;;;;;;;5035897;28;20188;-65
2022/03/19 04:29:22;;;;;;;16.87;11.90;;;;;;;;;;5053593;28;20543;-65
2022/03/19 04:31:48;;;;;;;18.17;12.93;;;;;;;;;;5053283;23;20230;-61
2022/03/19 04:34:14;;;;;;;18.43;12.70;;;;;;;;;;5017928;28;20262;-61
2022/03/19 04:36:41;;;;;;;18.90;12.47;;;;;;;;;;5016409;28;20536;-60
2022/03/19 04:39:08;;;;;;;16.57;11.60;;;;;;;;;;5033839;28;20175;-61
2022/03/19 04:41:34;;;;;;;17.33;10.50;;;;;;;;;;5036095;28;20733;-61
2022/03/19 04:44:01;;;;;;;18.90;12.03;;;;;;;;;;5037848;28;20294;-61
2022/03/19 04:46:27;;;;;;;18.53;12.43;;;;;;;;;;5037700;28;20182;-61
2022/03/19 04:48:53;;;;;;;17.93;11.77;;;;;;;;;;5037938;28;20191;-61
2022/03/19 04:51:20;;;;;;;20.53;10.80;;;;;;;;;;5019780;28;20202;-61
2022/03/19 04:53:50;;;;;;;19.13;12.10;;;;;;;;;;5037395;28;20210;-61
2022/03/19 04:56:17;;;;;;;16.20;11.87;;;;;;;;;;5019839;28;20185;-61
2022/03/19 04:58:43;;;;;;;18.88;10.90;;;;;;;;;;5036846;28;20379;-61
2022/03/19 05:01:09;;;;;;;18.88;12.13;;;;;;;;;;5018680;28;20433;-61
2022/03/19 05:03:35;;;;;;;16.98;12.30;;;;;;;;;;5018637;28;20444;-64
2022/03/19 05:06:01;;;;;;;17.77;11.80;;;;;;;;;;5036010;28;20374;-60
2022/03/19 05:08:27;;;;;;;16.20;11.63;;;;;;;;;;5036115;28;20436;-61
2022/03/19 05:13:37;;;;;;;16.23;12.00;;;;;;;;;;5035965;28;20501;-61
2022/03/19 05:16:03;;;;;;;16.42;12.38;;;;;;;;;;5018673;28;20466;-61
2022/03/19 05:18:29;;;;;;;17.77;13.27;;;;;;;;;;5035823;28;20391;-61
2022/03/19 05:20:56;;;;;;;19.02;13.45;;;;;;;;;;5018374;28;20458;-62
2022/03/19 05:23:23;;;;;;;18.15;13.40;;;;;;;;;;5035896;28;20379;-61
2022/03/19 05:25:49;;;;;;;18.75;13.65;;;;;;;;;;5017930;28;20747;-61
2022/03/19 05:28:15;;;;;;;17.10;12.35;;;;;;;;;;5036196;28;20386;-61
2022/03/19 05:30:41;;;;;;;18.30;13.40;;;;;;;;;;5040489;28;20387;-64
2022/03/19 05:33:07;;;;;;;16.77;12.85;;;;;;;;;;5031039;28;20415;-61
2022/03/19 05:35:34;;;;;;;16.88;12.77;;;;;;;;;;5031044;28;20383;-62
2022/03/19 05:38:00;;;;;;;16.73;13.00;;;;;;;;;;5050517;28;20383;-60
2022/03/19 05:40:29;;;;;;;16.88;13.00;;;;;;;;;;5047257;28;20387;-61
2022/03/19 05:42:55;;;;;;;15.35;13.00;;;;;;;;;;5047964;28;20467;-61
2022/03/19 05:45:21;;;;;;;20.20;13.45;;;;;;;;;;5031051;28;20878;-61
2022/03/19 05:47:47;;;;;;;19.33;14.23;;;;;;;;;;5047276;28;20387;-61
2022/03/19 05:50:15;;;;;;;18.73;13.57;;;;;;;;;;5046930;28;20475;-62
2022/03/19 05:52:41;;;;;;;19.75;13.50;;;;;;;;;;5028767;28;20434;-61
2022/03/19 05:55:08;;;;;;;17.60;13.63;;;;;;;;;;5048049;28;20418;-61
2022/03/19 05:57:34;;;;;;;19.83;13.63;;;;;;;;;;5046340;28;20391;-61
2022/03/19 06:00:00;;;;;;;19.85;13.82;;;;;;;;;;5045714;28;20383;-61
2022/03/19 06:02:26;;;;;;;21.83;13.55;;;;;;;;;;5048676;28;20398;-64
2022/03/19 06:04:53;;;;;;;23.60;14.90;;;;;;;;;;5032409;28;20412;-63
2022/03/19 06:07:19;;;;;;;18.00;12.90;;;;;;;;;;5047287;28;20403;-62
2022/03/19 06:09:45;;;;;;;17.97;11.83;;;;;;;;;;5050151;28;20439;-61
2022/03/19 06:12:11;;;;;;;16.95;12.20;;;;;;;;;;5049153;28;20464;-61
2022/03/19 06:14:37;;;;;;;19.27;12.10;;;;;;;;;;5050424;28;20413;-63
2022/03/19 06:17:03;;;;;;;19.92;12.50;;;;;;;;;;5036134;28;20388;-62
2022/03/19 06:19:29;;;;;;;17.40;12.27;;;;;;;;;;5035520;28;20387;-62
2022/03/19 06:21:55;;;;;;;17.02;11.68;;;;;;;;;;5050793;28;20406;-63
2022/03/19 06:24:23;;;;;;;16.85;11.88;;;;;;;;;;5050283;28;20383;-63
2022/03/19 06:26:49;;;;;;;15.47;11.27;;;;;;;;;;5031944;28;20394;-61
2022/03/19 06:29:15;;;;;;;16.50;11.55;;;;;;;;;;5048778;28;20413;-63
2022/03/19 06:31:41;;;;;;;15.48;11.82;;;;;;;;;;5052247;28;20419;-61
2022/03/19 06:34:07;;;;;;;16.73;11.80;;;;;;;;;;5053106;28;20379;-63
2022/03/19 06:39:18;;;;;;;17.13;11.93;;;;;;;;;;5051847;28;20371;-62
2022/03/19 06:41:45;;;;;;;17.38;11.40;;;;;;;;;;5051604;28;20410;-62
2022/03/19 06:44:11;;;;;;;15.20;11.60;;;;;;;;;;5050981;28;20383;-62
2022/03/19 06:46:36;;;;;;;14.38;11.75;;;;;;;;;;5050225;28;20402;-61
2022/03/19 06:49:03;;;;;;;15.80;11.45;;;;;;;;;;5049569;28;20371;-62
2022/03/19 06:51:29;;;;;;;17.73;12.05;;;;;;;;;;5050727;28;20383;-61
2022/03/19 06:53:55;;;;;;;17.23;11.98;;;;;;;;;;5051768;28;20398;-62
2022/03/19 06:56:21;;;;;;;17.83;10.70;;;;;;;;;;5032575;28;20395;-61
2022/03/19 06:58:47;;;;;;;16.73;11.10;;;;;;;;;;5033641;28;20450;-62
2022/03/19 07:01:16;;;;;;;16.92;11.65;;;;;;;;;;5032426;28;20786;-62
2022/03/19 07:03:43;;;;;;;17.17;10.57;;;;;;;;;;5033098;28;20375;-62
2022/03/19 07:06:09;;;;;;;18.98;11.23;;;;;;;;;;5050618;28;20414;-62
2022/03/19 07:08:35;;;;;;;16.70;11.52;;;;;;;;;;5032824;28;20402;-62
2022/03/19 07:11:01;;;;;;;16.55;11.63;;;;;;;;;;5050471;28;20383;-62
2022/03/19 07:13:27;;;;;;;18.15;12.07;;;;;;;;;;5033882;28;20403;-64
2022/03/19 07:15:53;;;;;;;15.35;10.68;;;;;;;;;;5051929;28;20447;-62
2022/03/19 07:18:19;;;;;;;16.30;10.18;;;;;;;;;;5050731;28;20380;-62
2022/03/19 07:20:45;;;;;;;16.88;10.00;;;;;;;;;;5049612;28;20375;-62
2022/03/19 07:23:11;;;;;;;16.00;9.85;;;;;;;;;;5050717;28;20379;-62
2022/03/19 07:25:38;;;;;;;15.52;9.18;;;;;;;;;;5033230;28;20403;-62
2022/03/19 07:28:06;;;;;;;13.48;8.95;;;;;;;;;;5032810;28;20426;-62
2022/03/19 07:30:32;;;;;;;12.98;9.05;;;;;;;;;;5047548;28;20406;-61
2022/03/19 07:32:58;;;;;;;16.73;8.82;;;;;;;;;;5050840;28;20418;-61
2022/03/19 07:35:24;;;;;;;14.87;9.27;;;;;;;;;;5048061;28;20371;-61
2022/03/19 07:37:50;;;;;;;15.07;8.50;;;;;;;;;;5041227;28;20433;-61
2022/03/19 07:43:03;;;;;;;13.83;8.10;;;;;;;;;;5047028;28;20378;-62
2022/03/19 07:45:30;;;;;;;12.43;8.13;;;;;;;;;;5046808;28;20440;-61
2022/03/19 07:47:56;;;;;;;12.97;8.80;;;;;;;;;;5030170;28;20386;-61
2022/03/19 07:50:22;;;;;;;14.10;8.45;;;;;;;;;;5028853;28;20391;-61
2022/03/19 07:52:48;;;;;;;14.33;8.43;;;;;;;;;;5047457;28;20448;-61
2022/03/19 07:55:14;;;;;;;14.63;7.47;;;;;;;;;;5049264;28;20229;-61
2022/03/19 07:57:40;;;;;;;11.27;6.40;;;;;;;;;;5047841;28;20175;-61
2022/03/19 08:00:06;;;;;;;13.47;8.17;;;;;;;;;;5050241;28;20171;-61
2022/03/19 08:02:32;;;;;;;14.93;8.03;;;;;;;;;;5048049;28;20242;-61
2022/03/19 08:05:00;;;;;;;12.70;8.10;;;;;;;;;;5048750;28;20187;-62
2022/03/19 08:07:26;;;;;;;10.90;6.80;;;;;;;;;;5047628;28;20704;-61
2022/03/19 08:09:52;;;;;;;11.70;7.37;;;;;;;;;;5047976;28;20183;-61
2022/03/19 08:12:18;;;;;;;14.03;7.13;;;;;;;;;;5047987;28;20574;-61
2022/03/19 08:14:44;;;;;;;14.50;8.70;;;;;;;;;;5030163;28;20186;-61
2022/03/19 08:17:11;;;;;;;14.30;9.37;;;;;;;;;;5030307;28;20179;-61
2022/03/19 08:19:37;;;;;;;13.67;8.30;;;;;;;;;;5046889;28;20167;-62
2022/03/19 08:22:03;;;;;;;12.57;7.50;;;;;;;;;;5047125;28;20203;-61
2022/03/19 08:24:29;;;;;;;10.27;8.17;;;;;;;;;;5047545;28;20183;-62
2022/03/19 08:26:55;;;;;;;15.47;7.90;;;;;;;;;;5048521;28;20205;-62
2022/03/19 08:29:24;;;;;;;11.97;7.67;;;;;;;;;;5034013;28;20185;-62
2022/03/19 08:31:51;;;;;;;11.43;7.27;;;;;;;;;;5050047;28;20293;-63
2022/03/19 08:34:17;;;;;;;10.50;7.03;;;;;;;;;;5049952;28;20250;-62
2022/03/19 08:36:43;;;;;;;15.50;7.60;;;;;;;;;;5050572;28;20175;-62
2022/03/19 08:41:54;;;;;;;11.33;7.07;;;;;;;;;;5051027;28;20262;-62
2022/03/19 08:44:20;;;;;;;16.37;8.40;;;;;;;;;;5031301;28;20186;-62
2022/03/19 08:46:46;;;;;;;13.67;7.33;;;;;;;;;;5031621;28;20183;-61
2022/03/19 08:49:12;;;;;;;17.23;8.27;;;;;;;;;;5049620;28;20179;-62
2022/03/19 08:51:41;;;;;;;18.03;7.27;;;;;;;;;;5050758;28;20200;-61
2022/03/19 08:54:18;;;;;;;14.90;7.47;;;;;;;;;;5030682;28;20202;-62
2022/03/19 08:56:44;;;;;;;11.97;7.27;;;;;;;;;;5026415;28;20242;-62
2022/03/19 08:59:11;;;;;;;17.80;7.37;;;;;;;;;;5043694;28;20180;-62
2022/03/19 09:01:38;;;;;;;18.23;6.60;;;;;;;;;;5043796;28;20195;-63
2022/03/19 09:04:04;;;;;;;16.20;7.70;;;;;;;;;;5033863;28;20180;-62
2022/03/19 09:06:30;;;;;;;11.27;6.30;;;;;;;;;;5050416;28;20193;-61
2022/03/19 09:08:56;;;;;;;10.73;6.27;;;;;;;;;;5052111;28;20163;-62
2022/03/19 09:11:23;;;;;;;10.23;5.97;;;;;;;;;;5054276;28;20230;-62
2022/03/19 09:13:50;;;;;;;12.90;7.50;;;;;;;;;;5054289;28;20197;-62
2022/03/19 09:16:17;;;;;;;11.50;6.70;;;;;;;;;;5043971;28;20258;-61
2022/03/19 09:18:43;;;;;;;17.63;6.83;;;;;;;;;;5036109;28;20183;-62
2022/03/19 09:21:09;;;;;;;9.93;6.53;;;;;;;;;;5035927;28;20176;-61
2022/03/19 09:23:35;;;;;;;14.03;6.57;;;;;;;;;;5035293;28;20182;-61
2022/03/19 09:26:01;;;;;;;11.20;5.67;;;;;;;;;;5019423;28;20214;-61
2022/03/19 09:28:27;;;;;;;11.87;5.63;;;;;;;;;;5020065;28;20179;-62
2022/03/19 09:30:53;;;;;;;8.43;5.60;;;;;;;;;;5040398;28;20658;-62
2022/03/19 09:33:19;;;;;;;9.97;6.60;;;;;;;;;;5023618;28;20357;-61
2022/03/19 09:35:46;;;;;;;11.33;5.60;;;;;;;;;;5022931;28;20655;-61
2022/03/19 09:38:13;;;;;;;8.73;4.93;;;;;;;;;;5039726;28;20194;-61
2022/03/19 09:40:39;;;;;;;8.37;4.00;;;;;;;;;;5041715;28;20175;-62
2022/03/19 09:43:05;;;;;;;12.17;5.30;;;;;;;;;;5041806;28;20230;-61
2022/03/19 09:45:33;;;;;;;7.53;4.50;;;;;;;;;;5039961;28;20194;-61
2022/03/19 09:47:59;;;;;;;16.47;5.73;;;;;;;;;;5039918;28;20186;-60
2022/03/19 09:50:26;;;;;;;7.53;4.43;;;;;;;;;;5024717;28;20222;-61
2022/03/19 09:52:55;;;;;;;10.70;3.90;;;;;;;;;;5042512;28;20203;-61
2022/03/19 09:55:26;;;;;;;6.80;4.10;;;;;;;;;;5024745;28;20187;-61
2022/03/19 09:57:53;;;;;;;6.63;4.23;;;;;;;;;;5042463;28;20160;-63
2022/03/19 10:00:22;;;;;;;10.23;4.40;;;;;;;;;;5041395;28;20179;-61
2022/03/19 10:02:54;;;;;;;8.60;3.93;;;;;;;;;;5021499;28;20213;-62
2022/03/19 10:10:55;;;;;;;6.70;3.80;;;;;;;;;;5040947;28;20179;-61
2022/03/19 10:13:22;;;;;;;5.27;3.70;;;;;;;;;;5041016;28;20667;-61
2022/03/19 10:15:49;;;;;;;7.90;3.47;;;;;;;;;;5020924;28;20187;-61
2022/03/19 10:18:14;;;;;;;5.33;3.20;;;;;;;;;;5037451;28;20175;-61
2022/03/19 10:20:42;;;;;;;11.77;3.60;;;;;;;;;;5036691;28;20186;-62
2022/03/19 10:23:08;;;;;;;6.00;3.33;;;;;;;;;;5018876;28;20245;-61
2022/03/19 10:25:34;;;;;;;5.57;3.37;;;;;;;;;;5036738;28;20183;-61
2022/03/19 10:28:08;;;;;;;7.87;3.83;;;;;;;;;;5036018;28;20189;-60
2022/03/19 10:30:38;;;;;;;4.97;3.43;;;;;;;;;;5036996;28;20191;-61
2022/03/19 10:33:07;;;;;;;7.60;3.50;;;;;;;;;;5035965;28;20222;-61
2022/03/19 10:35:34;;;;;;;4.27;2.37;;;;;;;;;;5035979;28;20175;-61
2022/03/19 10:38:03;;;;;;;7.07;3.67;;;;;;;;;;5018409;28;20181;-60
2022/03/19 10:40:42;;;;;;;5.20;2.70;;;;;;;;;;5036291;28;20171;-61
2022/03/19 10:43:09;;;;;;;5.30;3.13;;;;;;;;;;5065227;22;20257;-65
2022/03/19 10:45:41;;;;;;;4.93;2.87;;;;;;;;;;5053832;28;20269;-65
2022/03/19 10:48:09;;;;;;;9.43;3.03;;;;;;;;;;5053842;28;20167;-65
2022/03/19 10:50:35;;;;;;;8.40;2.67;;;;;;;;;;5055344;28;20231;-65
2022/03/19 10:53:01;;;;;;;4.23;2.00;;;;;;;;;;5054940;28;20230;-65
2022/03/19 10:55:27;;;;;;;6.17;2.10;;;;;;;;;;5055120;28;20202;-65
2022/03/19 10:57:54;;;;;;;4.50;2.20;;;;;;;;;;5053601;28;20253;-65
2022/03/19 11:00:20;;;;;;;4.27;2.53;;;;;;;;;;5054904;28;20170;-65
2022/03/19 11:02:48;;;;;;;4.37;2.33;;;;;;;;;;5054947;28;20199;-65
2022/03/19 11:05:16;;;;;;;4.77;2.20;;;;;;;;;;5054636;28;20268;-65
2022/03/19 11:07:44;;;;;;;6.57;2.30;;;;;;;;;;5054543;28;20183;-65
2022/03/19 11:10:11;;;;;;;4.47;1.63;;;;;;;;;;5053284;28;20183;-65
2022/03/19 11:12:40;;;;;;;7.20;1.97;;;;;;;;;;5053169;28;20609;-65
2022/03/19 11:15:09;;;;;;;5.43;1.80;;;;;;;;;;5054607;28;20167;-65
2022/03/19 11:17:36;;;;;;;5.00;2.00;;;;;;;;;;5053144;28;20184;-65
2022/03/19 11:20:13;;;;;;;8.27;2.00;;;;;;;;;;5054391;28;20175;-65
2022/03/19 11:22:40;;;;;;;4.33;1.77;;;;;;;;;;5052866;28;20206;-65
2022/03/19 11:25:12;;;;;;;2.23;1.40;;;;;;;;;;5054351;28;20213;-65
2022/03/19 11:27:41;;;;;;;3.47;1.80;;;;;;;;;;5053119;28;20183;-65
2022/03/19 11:30:07;;;;;;;2.37;1.50;;;;;;;;;;5054073;28;20190;-65
2022/03/19 11:32:33;;;;;;;7.00;2.13;;;;;;;;;;5053910;28;20256;-65
2022/03/19 11:35:01;;;;;;;3.63;1.70;;;;;;;;;;5054004;28;20647;-65
2022/03/19 11:37:49;;;;;;;4.13;1.77;;;;;;;;;;5054417;28;20179;-65
2022/03/19 11:40:15;;;;;;;5.10;1.80;;;;;;;;;;5024030;28;20183;-66
2022/03/19 11:42:51;;;;;;;4.70;1.67;;;;;;;;;;5053944;28;20266;-66
2022/03/19 11:45:16;;;;;;;4.60;1.60;;;;;;;;;;5052447;28;20192;-66
2022/03/19 11:47:43;;;;;;;4.67;1.80;;;;;;;;;;5053783;28;20261;-65
2022/03/19 11:50:19;;;;;;;5.20;1.70;;;;;;;;;;5053244;28;20179;-65
2022/03/19 11:52:54;;;;;;;6.10;1.70;;;;;;;;;;5052611;28;20210;-65
2022/03/19 11:55:23;;;;;;;6.07;2.00;;;;;;;;;;5053958;28;20547;-65
2022/03/19 11:57:58;;;;;;;5.03;1.90;;;;;;;;;;5053921;28;20178;-65
2022/03/19 12:00:26;;;;;;;2.83;1.57;;;;;;;;;;5058924;28;20178;-66
2022/03/19 12:03:03;;;;;;;3.73;1.57;;;;;;;;;;5058395;28;20211;-65
2022/03/19 12:05:30;;;;;;;2.97;1.87;;;;;;;;;;5058591;28;20178;-65
2022/03/19 12:07:57;;;;;;;4.10;1.60;;;;;;;;;;5054117;28;20178;-65
2022/03/19 12:10:24;;;;;;;3.97;1.63;;;;;;;;;;5052366;28;20210;-65
2022/03/19 12:12:51;;;;;;;3.67;1.90;;;;;;;;;;5052520;28;20297;-65
2022/03/19 12:15:32;;;;;;;7.53;2.20;;;;;;;;;;5053604;28;20189;-65
2022/03/19 12:18:17;;;;;;;3.03;2.00;;;;;;;;;;5052239;28;20217;-65
2022/03/19 12:20:43;;;;;;;4.67;2.20;;;;;;;;;;5052178;28;20178;-65
2022/03/19 12:23:11;;;;;;;4.33;2.23;;;;;;;;;;5053460;28;20197;-65
2022/03/19 12:25:42;;;;;;;2.20;1.57;;;;;;;;;;5053454;28;20710;-65
2022/03/19 12:28:08;;;;;;;3.47;2.17;;;;;;;;;;5052016;28;20557;-65
2022/03/19 12:30:35;;;;;;;5.40;2.07;;;;;;;;;;5053898;28;20182;-65
2022/03/19 12:33:01;;;;;;;4.33;2.27;;;;;;;;;;5051800;28;20210;-65
2022/03/19 12:35:41;;;;;;;4.33;2.47;;;;;;;;;;5053403;28;20178;-66
2022/03/19 12:38:07;;;;;;;3.90;2.33;;;;;;;;;;5053122;28;20669;-65
2022/03/19 12:43:19;;;;;;;6.23;2.77;;;;;;;;;;5053168;28;20228;-65
2022/03/19 12:45:49;;;;;;;8.37;2.57;;;;;;;;;;5051935;28;20182;-65
2022/03/19 12:48:16;;;;;;;3.47;1.90;;;;;;;;;;5053294;28;20233;-65
2022/03/19 12:50:50;;;;;;;6.00;2.47;;;;;;;;;;5052946;28;20201;-66
2022/03/19 12:53:16;;;;;;;3.33;2.40;;;;;;;;;;5052853;28;20293;-65
2022/03/19 12:55:42;;;;;;;5.43;2.20;;;;;;;;;;5051771;28;20220;-65
2022/03/19 12:58:08;;;;;;;4.30;2.07;;;;;;;;;;5052748;28;20255;-65
2022/03/19 13:00:34;;;;;;;4.27;2.83;;;;;;;;;;5053088;28;20182;-65
2022/03/19 13:03:00;;;;;;;4.53;1.80;;;;;;;;;;5055785;28;20685;-65
2022/03/19 13:05:26;;;;;;;4.10;2.30;;;;;;;;;;5055510;28;20178;-65
2022/03/19 13:08:05;;;;;;;5.17;2.40;;;;;;;;;;5056543;28;20178;-65
2022/03/19 13:10:40;;;;;;;3.53;2.30;;;;;;;;;;5057694;28;20665;-66
2022/03/19 13:13:07;;;;;;;4.37;2.10;;;;;;;;;;5056434;28;20682;-65
2022/03/19 13:15:33;;;;;;;3.43;1.93;;;;;;;;;;5055095;28;20210;-65
2022/03/19 13:17:59;;;;;;;3.03;2.00;;;;;;;;;;5055016;28;20174;-65
2022/03/19 13:20:25;;;;;;;4.27;1.80;;;;;;;;;;5056538;28;20214;-65
2022/03/19 13:22:58;;;;;;;3.43;2.00;;;;;;;;;;5056354;28;20756;-65
2022/03/19 13:25:25;;;;;;;3.70;2.27;;;;;;;;;;5056755;28;20594;-65
2022/03/19 13:27:53;;;;;;;4.90;1.73;;;;;;;;;;5056319;28;20209;-65
2022/03/19 13:30:19;;;;;;;4.20;2.43;;;;;;;;;;5056470;28;20179;-65
2022/03/19 13:32:45;;;;;;;1.87;1.60;;;;;;;;;;5056152;28;20559;-65
2022/03/19 13:35:11;;;;;;;3.00;1.80;;;;;;;;;;5055386;28;20224;-65
2022/03/19 13:37:38;;;;;;;10.77;2.47;;;;;;;;;;5055268;28;20210;-65
2022/03/19 13:40:06;;;;;;;5.63;1.80;;;;;;;;;;5056188;28;20197;-66
2022/03/19 13:42:36;;;;;;;3.23;1.47;;;;;;;;;;5055843;28;20225;-65
2022/03/19 13:45:02;;;;;;;3.83;1.60;;;;;;;;;;5055955;28;20185;-65
2022/03/19 13:47:32;;;;;;;1.70;1.37;;;;;;;;;;5056217;28;20186;-65
2022/03/19 13:49:59;;;;;;;10.77;1.80;;;;;;;;;;5055932;28;20179;-65
2022/03/19 13:52:44;;;;;;;4.07;1.70;;;;;;;;;;5055689;28;20213;-65
2022/03/19 13:55:15;;;;;;;3.43;1.90;;;;;;;;;;5056124;28;20178;-65
2022/03/19 13:57:45;;;;;;;2.77;1.60;;;;;;;;;;5055988;28;20171;-65
2022/03/19 14:00:22;;;;;;;4.30;1.83;;;;;;;;;;5055850;28;20174;-66
2022/03/19 14:02:54;;;;;;;5.73;1.73;;;;;;;;;;5056367;28;20645;-65
2022/03/19 14:05:21;;;;;;;2.80;1.97;;;;;;;;;;5055688;28;20673;-65
2022/03/19 14:07:48;;;;;;;1.50;1.40;;;;;;;;;;5055699;28;20658;-65
2022/03/19 14:10:15;;;;;;;6.37;2.13;;;;;;;;;;5056993;28;20183;-65
2022/03/19 14:12:43;;;;;;;3.63;1.87;;;;;;;;;;5055266;28;20651;-65
2022/03/19 14:15:10;;;;;;;1.77;1.67;;;;;;;;;;5056921;28;20593;-65
2022/03/19 14:17:54;;;;;;;3.77;1.97;;;;;;;;;;5056455;28;20179;-65
2022/03/19 14:20:24;;;;;;;2.73;1.70;;;;;;;;;;5055596;28;20517;-65
2022/03/19 14:22:51;;;;;;;2.67;1.80;;;;;;;;;;5055242;28;20666;-66
2022/03/19 14:25:17;;;;;;;1.57;1.47;;;;;;;;;;5054110;28;20186;-66
2022/03/19 14:27:44;;;;;;;2.77;1.87;;;;;;;;;;5055526;28;20261;-66
2022/03/19 14:30:12;;;;;;;4.87;1.93;;;;;;;;;;5053820;28;20187;-65
2022/03/19 14:32:38;;;;;;;1.50;1.40;;;;;;;;;;5055152;28;20247;-66
2022/03/19 14:35:04;;;;;;;4.27;1.80;;;;;;;;;;5058198;28;20250;-66
2022/03/19 14:37:30;;;;;;;3.15;1.80;;;;;;;;;;5057839;28;20393;-66
2022/03/19 14:39:56;;;;;;;1.87;1.53;;;;;;;;;;5058995;28;20186;-66
2022/03/19 14:42:23;;;;;;;6.47;1.73;;;;;;;;;;5058340;28;20297;-66
2022/03/19 14:44:51;;;;;;;2.77;1.43;;;;;;;;;;5055199;28;20662;-66
2022/03/19 14:47:17;;;;;;;2.30;1.57;;;;;;;;;;5055266;28;20224;-66
2022/03/19 14:49:43;;;;;;;3.07;1.90;;;;;;;;;;5054901;28;20178;-66